createdAt,value
2018-12-26T00:00:46.589Z,20.9
2018-12-26T00:01:47.353Z,25.5
2018-12-26T00:02:48.029Z,20.7
2018-12-26T00:03:48.739Z,21.9
2018-12-26T00:04:49.460Z,22.8
2018-12-26T00:05:50.229Z,21.0
2018-12-26T00:06:50.888Z,21.3
2018-12-26T00:07:51.611Z,21.4
2018-12-26T00:08:52.318Z,23.0
2018-12-26T00:09:53.171Z,22.6
2018-12-26T00:10:53.890Z,21.3
2018-12-26T00:11:54.597Z,19.5
2018-12-26T00:12:55.309Z,22.0
2018-12-26T00:13:56.015Z,20.0
2018-12-26T00:14:56.729Z,21.0
2018-12-26T00:15:57.456Z,21.0
2018-12-26T00:16:58.405Z,19.9
2018-12-26T00:17:59.128Z,22.1
2018-12-26T00:18:59.833Z,20.5
2018-12-26T00:20:00.665Z,22.9
2018-12-26T00:21:01.314Z,21.2
2018-12-26T00:22:02.026Z,21.8
2018-12-26T00:23:02.740Z,19.8
2018-12-26T00:24:03.484Z,19.7
2018-12-26T00:25:04.188Z,20.7
2018-12-26T00:26:04.878Z,20.6
2018-12-26T00:27:05.594Z,21.5
2018-12-26T00:28:06.302Z,24.1
2018-12-26T00:29:07.006Z,21.9
2018-12-26T00:30:07.721Z,21.1
2018-12-26T00:31:08.462Z,19.8
2018-12-26T00:32:09.177Z,21.6
2018-12-26T00:33:09.896Z,22.7
2018-12-26T00:34:10.602Z,23.6
2018-12-26T00:35:11.315Z,19.8
2018-12-26T00:36:12.022Z,19.7
2018-12-26T00:37:12.787Z,21.0
2018-12-26T00:38:13.494Z,20.2
2018-12-26T00:39:14.212Z,23.7
2018-12-26T00:40:15.160Z,20.6
2018-12-26T00:41:16.118Z,21.4
2018-12-26T00:42:16.834Z,22.6
2018-12-26T00:43:17.544Z,20.4
2018-12-26T00:44:18.257Z,20.0
2018-12-26T00:45:18.968Z,22.5
2018-12-26T00:46:19.670Z,21.5
2018-12-26T00:47:20.376Z,19.2
2018-12-26T00:48:21.093Z,20.7
2018-12-26T00:49:21.804Z,21.1
2018-12-26T00:50:22.504Z,20.1
2018-12-26T00:51:23.217Z,19.8
2018-12-26T00:52:23.928Z,20.8
2018-12-26T00:53:24.641Z,21.4
2018-12-26T00:54:25.357Z,20.4
2018-12-26T00:55:26.060Z,22.8
2018-12-26T00:56:26.761Z,21.6
2018-12-26T00:57:27.475Z,19.6
2018-12-26T00:58:28.172Z,20.6
2018-12-26T00:59:28.902Z,22.0
2018-12-26T01:00:29.616Z,22.4
2018-12-26T01:01:30.332Z,22.1
2018-12-26T01:02:31.046Z,20.7
2018-12-26T01:03:31.762Z,20.0
2018-12-26T01:04:32.473Z,20.0
2018-12-26T01:05:33.189Z,23.0
2018-12-26T01:06:33.902Z,20.3
2018-12-26T01:07:34.598Z,23.3
2018-12-26T01:08:35.307Z,21.8
2018-12-26T01:09:36.015Z,20.8
2018-12-26T01:10:36.882Z,22.3
2018-12-26T01:11:37.580Z,21.0
2018-12-26T01:12:38.305Z,19.8
2018-12-26T01:13:39.006Z,20.8
2018-12-26T01:14:39.720Z,22.8
2018-12-26T01:15:40.427Z,22.9
2018-12-26T01:16:41.144Z,21.7
2018-12-26T01:17:41.860Z,23.2
2018-12-26T01:18:42.569Z,20.7
2018-12-26T01:19:43.276Z,20.4
2018-12-26T01:20:43.983Z,21.6
2018-12-26T01:21:44.680Z,23.8
2018-12-26T01:22:45.391Z,21.8
2018-12-26T01:23:46.347Z,23.6
2018-12-26T01:24:47.063Z,21.1
2018-12-26T01:25:47.788Z,21.3
2018-12-26T01:26:48.495Z,21.7
2018-12-26T01:27:49.199Z,19.5
2018-12-26T01:28:50.156Z,26.0
2018-12-26T01:29:50.872Z,21.4
2018-12-26T01:30:51.585Z,22.0
2018-12-26T01:31:52.295Z,20.5
2018-12-26T01:32:53.011Z,21.1
2018-12-26T01:33:53.977Z,23.1
2018-12-26T01:34:54.691Z,20.9
2018-12-26T01:35:56.138Z,21.2
2018-12-26T01:36:56.121Z,29.9
2018-12-26T01:37:56.843Z,20.7
2018-12-26T01:38:57.555Z,24.7
2018-12-26T01:39:58.269Z,22.7
2018-12-26T01:40:58.976Z,23.4
2018-12-26T01:41:59.693Z,21.9
2018-12-26T01:43:00.458Z,23.4
2018-12-26T01:44:01.166Z,21.6
2018-12-26T01:45:01.883Z,24.8
2018-12-26T01:46:02.594Z,20.3
2018-12-26T01:47:03.335Z,20.7
2018-12-26T01:48:04.147Z,20.8
2018-12-26T01:49:04.865Z,21.5
2018-12-26T01:50:05.574Z,21.6
2018-12-26T01:51:06.274Z,20.8
2018-12-26T01:52:06.985Z,20.4
2018-12-26T01:53:07.791Z,21.4
2018-12-26T01:54:08.502Z,22.1
2018-12-26T01:55:09.206Z,22.8
2018-12-26T01:56:09.915Z,21.7
2018-12-26T01:57:10.622Z,21.5
2018-12-26T01:58:11.342Z,22.6
2018-12-26T01:59:12.068Z,22.3
2018-12-26T02:00:12.788Z,19.6
2018-12-26T02:01:13.492Z,22.3
2018-12-26T02:02:14.201Z,22.2
2018-12-26T02:03:15.221Z,20.0
2018-12-26T02:04:15.935Z,22.0
2018-12-26T02:05:16.641Z,22.7
2018-12-26T02:06:17.348Z,22.0
2018-12-26T02:07:18.054Z,21.5
2018-12-26T02:08:18.769Z,19.8
2018-12-26T02:09:19.481Z,19.6
2018-12-26T02:10:20.195Z,18.7
2018-12-26T02:11:20.904Z,22.9
2018-12-26T02:12:21.618Z,20.1
2018-12-26T02:13:22.326Z,18.8
2018-12-26T02:14:23.038Z,20.2
2018-12-26T02:15:23.749Z,22.6
2018-12-26T02:16:24.470Z,19.5
2018-12-26T02:17:25.188Z,19.9
2018-12-26T02:18:25.907Z,21.0
2018-12-26T02:19:26.617Z,21.6
2018-12-26T02:20:27.333Z,19.2
2018-12-26T02:21:28.118Z,18.3
2018-12-26T02:22:28.813Z,18.9
2018-12-26T02:23:29.508Z,22.3
2018-12-26T02:24:30.218Z,18.7
2018-12-26T02:25:30.927Z,19.0
2018-12-26T02:26:36.346Z,19.9
2018-12-26T02:27:32.500Z,17.7
2018-12-26T02:28:33.205Z,18.4
2018-12-26T02:29:33.928Z,18.8
2018-12-26T02:30:34.650Z,19.4
2018-12-26T02:31:35.358Z,18.1
2018-12-26T02:32:36.077Z,17.8
2018-12-26T02:33:36.795Z,18.6
2018-12-26T02:34:37.495Z,19.7
2018-12-26T02:35:38.200Z,19.3
2018-12-26T02:36:38.913Z,18.1
2018-12-26T02:37:39.639Z,19.8
2018-12-26T02:38:40.354Z,18.2
2018-12-26T02:39:41.070Z,18.3
2018-12-26T02:40:41.784Z,20.0
2018-12-26T02:41:42.498Z,18.3
2018-12-26T02:42:43.214Z,19.0
2018-12-26T02:43:43.920Z,18.1
2018-12-26T02:44:44.628Z,19.6
2018-12-26T02:45:45.351Z,17.3
2018-12-26T02:46:46.057Z,19.7
2018-12-26T02:47:46.777Z,17.7
2018-12-26T02:48:47.496Z,18.2
2018-12-26T02:49:48.220Z,17.6
2018-12-26T02:50:48.917Z,18.2
2018-12-26T02:51:49.638Z,20.5
2018-12-26T02:52:50.363Z,20.2
2018-12-26T02:53:51.087Z,21.8
2018-12-26T02:54:52.067Z,18.4
2018-12-26T02:55:52.913Z,23.2
2018-12-26T02:56:53.631Z,17.9
2018-12-26T02:57:54.349Z,22.3
2018-12-26T02:58:55.067Z,18.0
2018-12-26T02:59:55.777Z,20.0
2018-12-26T03:00:56.596Z,20.5
2018-12-26T03:01:57.302Z,19.0
2018-12-26T03:02:58.014Z,23.0
2018-12-26T03:03:58.734Z,22.1
2018-12-26T03:04:59.449Z,22.9
2018-12-26T03:06:00.157Z,21.9
2018-12-26T03:07:00.876Z,23.8
2018-12-26T03:08:01.581Z,22.6
2018-12-26T03:09:02.307Z,20.5
2018-12-26T03:10:03.008Z,27.1
2018-12-26T03:11:03.721Z,22.8
2018-12-26T03:12:04.448Z,24.1
2018-12-26T03:13:05.161Z,20.6
2018-12-26T03:14:05.876Z,21.7
2018-12-26T03:15:06.597Z,26.6
2018-12-26T03:16:07.320Z,22.8
2018-12-26T03:17:08.038Z,18.2
2018-12-26T03:18:08.753Z,22.6
2018-12-26T03:19:09.474Z,25.2
2018-12-26T03:20:10.188Z,20.4
2018-12-26T03:21:10.893Z,20.5
2018-12-26T03:22:11.604Z,22.6
2018-12-26T03:23:12.318Z,22.0
2018-12-26T03:24:13.027Z,22.7
2018-12-26T03:25:13.727Z,23.7
2018-12-26T03:26:14.443Z,22.3
2018-12-26T03:27:15.154Z,24.0
2018-12-26T03:28:15.871Z,22.4
2018-12-26T03:29:16.599Z,26.4
2018-12-26T03:30:17.310Z,24.2
2018-12-26T03:31:18.020Z,22.4
2018-12-26T03:32:18.735Z,22.9
2018-12-26T03:33:19.458Z,25.0
2018-12-26T03:34:20.229Z,21.1
2018-12-26T03:35:20.942Z,20.6
2018-12-26T03:36:21.654Z,26.4
2018-12-26T03:37:22.359Z,25.1
2018-12-26T03:38:23.073Z,22.7
2018-12-26T03:39:23.848Z,20.4
2018-12-26T03:40:24.552Z,22.1
2018-12-26T03:41:25.270Z,21.1
2018-12-26T03:42:25.984Z,20.6
2018-12-26T03:43:26.692Z,23.5
2018-12-26T03:44:27.402Z,24.4
2018-12-26T03:45:28.163Z,25.1
2018-12-26T03:46:28.876Z,25.7
2018-12-26T03:47:29.582Z,23.3
2018-12-26T03:48:30.293Z,21.5
2018-12-26T03:49:31.005Z,20.7
2018-12-26T03:50:31.714Z,25.2
2018-12-26T03:51:32.419Z,21.8
2018-12-26T03:52:33.138Z,24.4
2018-12-26T03:53:33.846Z,25.6
2018-12-26T03:54:34.559Z,23.0
2018-12-26T03:55:35.323Z,24.2
2018-12-26T03:56:36.035Z,23.2
2018-12-26T03:57:36.751Z,24.6
2018-12-26T03:58:37.462Z,24.7
2018-12-26T03:59:38.170Z,21.8
2018-12-26T04:00:38.901Z,23.7
2018-12-26T04:01:39.610Z,27.5
2018-12-26T04:02:40.387Z,24.8
2018-12-26T04:03:41.092Z,24.5
2018-12-26T04:04:41.804Z,25.6
2018-12-26T04:05:42.515Z,26.4
2018-12-26T04:06:43.221Z,26.6
2018-12-26T04:07:43.999Z,23.4
2018-12-26T04:08:44.708Z,26.7
2018-12-26T04:09:45.426Z,26.9
2018-12-26T04:10:46.395Z,25.3
2018-12-26T04:11:47.103Z,25.5
2018-12-26T04:12:47.813Z,27.3
2018-12-26T04:13:48.525Z,25.4
2018-12-26T04:14:49.240Z,32.1
2018-12-26T04:15:49.949Z,27.1
2018-12-26T04:16:50.662Z,29.8
2018-12-26T04:17:51.368Z,29.4
2018-12-26T04:18:52.080Z,25.0
2018-12-26T04:19:52.792Z,26.9
2018-12-26T04:20:53.501Z,32.8
2018-12-26T04:21:54.207Z,29.4
2018-12-26T04:22:55.179Z,25.6
2018-12-26T04:23:55.884Z,32.7
2018-12-26T04:24:56.851Z,30.0
2018-12-26T04:25:57.570Z,31.6
2018-12-26T04:26:58.283Z,31.3
2018-12-26T04:27:58.996Z,27.3
2018-12-26T04:28:59.700Z,31.1
2018-12-26T04:30:00.423Z,32.6
2018-12-26T04:31:01.131Z,31.2
2018-12-26T04:32:01.834Z,28.1
2018-12-26T04:33:02.555Z,31.6
2018-12-26T04:34:03.264Z,34.5
2018-12-26T04:35:03.980Z,28.8
2018-12-26T04:36:04.694Z,29.4
2018-12-26T04:37:05.409Z,26.0
2018-12-26T04:38:06.125Z,28.2
2018-12-26T04:39:06.841Z,31.4
2018-12-26T04:40:07.560Z,39.0
2018-12-26T04:41:08.275Z,28.3
2018-12-26T04:42:08.979Z,28.4
2018-12-26T04:43:09.688Z,31.5
2018-12-26T04:44:10.400Z,28.9
2018-12-26T04:45:11.109Z,27.7
2018-12-26T04:46:11.834Z,30.8
2018-12-26T04:47:12.539Z,28.3
2018-12-26T04:48:13.247Z,31.8
2018-12-26T04:49:13.967Z,30.3
2018-12-26T04:50:14.676Z,30.5
2018-12-26T04:51:15.397Z,32.4
2018-12-26T04:52:16.105Z,30.5
2018-12-26T04:53:16.828Z,27.7
2018-12-26T04:54:17.542Z,30.0
2018-12-26T04:55:18.258Z,28.4
2018-12-26T04:56:18.971Z,28.5
2018-12-26T04:57:24.639Z,29.1
2018-12-26T04:58:20.399Z,31.4
2018-12-26T04:59:21.115Z,31.5
2018-12-26T05:00:21.833Z,28.1
2018-12-26T05:01:22.595Z,29.0
2018-12-26T05:02:23.551Z,28.9
2018-12-26T05:03:24.266Z,30.9
2018-12-26T05:04:24.976Z,33.1
2018-12-26T05:05:25.681Z,26.6
2018-12-26T05:06:26.445Z,34.1
2018-12-26T05:07:27.148Z,30.9
2018-12-26T05:08:27.869Z,30.9
2018-12-26T05:09:28.581Z,32.4
2018-12-26T05:10:29.291Z,30.6
2018-12-26T05:11:30.005Z,28.7
2018-12-26T05:12:30.708Z,31.3
2018-12-26T05:13:31.443Z,38.1
2018-12-26T05:14:32.146Z,26.7
2018-12-26T05:15:32.866Z,30.2
2018-12-26T05:16:33.578Z,33.3
2018-12-26T05:17:34.394Z,30.3
2018-12-26T05:18:35.121Z,29.2
2018-12-26T05:19:35.832Z,32.2
2018-12-26T05:20:36.549Z,29.1
2018-12-26T05:21:37.251Z,26.9
2018-12-26T05:22:38.006Z,28.1
2018-12-26T05:23:38.737Z,30.4
2018-12-26T05:24:39.453Z,31.5
2018-12-26T05:25:40.169Z,29.8
2018-12-26T05:26:40.886Z,31.8
2018-12-26T05:27:41.592Z,30.3
2018-12-26T05:28:42.331Z,29.4
2018-12-26T05:29:43.028Z,30.8
2018-12-26T05:30:43.741Z,30.4
2018-12-26T05:31:44.452Z,31.3
2018-12-26T05:32:45.167Z,36.4
2018-12-26T05:33:45.881Z,33.2
2018-12-26T05:34:46.588Z,34.8
2018-12-26T05:35:47.302Z,38.6
2018-12-26T05:36:48.021Z,32.6
2018-12-26T05:37:48.738Z,36.0
2018-12-26T05:38:49.443Z,36.0
2018-12-26T05:39:50.400Z,39.4
2018-12-26T05:40:51.105Z,38.7
2018-12-26T05:41:51.832Z,39.5
2018-12-26T05:42:52.555Z,37.6
2018-12-26T05:43:53.261Z,41.7
2018-12-26T05:44:53.966Z,38.9
2018-12-26T05:45:54.694Z,41.8
2018-12-26T05:46:55.393Z,39.9
2018-12-26T05:47:56.107Z,44.5
2018-12-26T05:48:56.835Z,45.8
2018-12-26T05:49:57.560Z,46.2
2018-12-26T05:50:58.279Z,51.8
2018-12-26T05:51:58.987Z,49.4
2018-12-26T05:52:59.702Z,49.3
2018-12-26T05:54:00.404Z,48.8
2018-12-26T05:55:01.113Z,53.8
2018-12-26T05:56:01.831Z,53.0
2018-12-26T05:57:02.549Z,60.0
2018-12-26T05:58:03.260Z,59.1
2018-12-26T05:59:03.969Z,55.9
2018-12-26T06:00:04.793Z,62.8
2018-12-26T06:01:05.494Z,60.5
2018-12-26T06:02:06.212Z,63.0
2018-12-26T06:03:06.921Z,69.8
2018-12-26T06:04:07.635Z,71.6
2018-12-26T06:05:08.344Z,64.9
2018-12-26T06:06:09.057Z,69.5
2018-12-26T06:07:09.771Z,77.5
2018-12-26T06:08:10.487Z,73.3
2018-12-26T06:09:11.198Z,74.7
2018-12-26T06:10:11.905Z,70.8
2018-12-26T06:11:12.620Z,73.0
2018-12-26T06:12:13.349Z,77.9
2018-12-26T06:13:14.047Z,82.1
2018-12-26T06:14:14.779Z,82.7
2018-12-26T06:15:15.482Z,78.6
2018-12-26T06:16:16.186Z,83.1
2018-12-26T06:17:16.905Z,93.1
2018-12-26T06:18:17.632Z,90.0
2018-12-26T06:19:18.353Z,88.1
2018-12-26T06:20:19.062Z,91.0
2018-12-26T06:21:19.779Z,92.0
2018-12-26T06:22:20.489Z,91.0
2018-12-26T06:23:21.216Z,92.1
2018-12-26T06:24:21.935Z,92.0
2018-12-26T06:25:22.648Z,101.7
2018-12-26T06:26:23.629Z,97.8
2018-12-26T06:27:24.490Z,93.4
2018-12-26T06:28:25.203Z,97.2
2018-12-26T06:29:26.174Z,103.1
2018-12-26T06:30:26.882Z,109.7
2018-12-26T06:31:27.600Z,110.4
2018-12-26T06:32:28.325Z,104.7
2018-12-26T06:33:29.021Z,99.8
2018-12-26T06:34:29.738Z,111.5
2018-12-26T06:35:30.450Z,111.5
2018-12-26T06:36:31.155Z,119.2
2018-12-26T06:37:31.874Z,115.4
2018-12-26T06:38:32.591Z,115.3
2018-12-26T06:39:33.313Z,115.1
2018-12-26T06:40:34.026Z,114.6
2018-12-26T06:41:34.734Z,118.8
2018-12-26T06:42:35.446Z,115.4
2018-12-26T06:43:36.157Z,123.0
2018-12-26T06:44:36.961Z,128.8
2018-12-26T06:45:37.680Z,121.7
2018-12-26T06:46:38.417Z,140.1
2018-12-26T06:47:39.125Z,136.0
2018-12-26T06:48:39.843Z,130.4
2018-12-26T06:49:40.596Z,134.6
2018-12-26T06:50:41.318Z,129.5
2018-12-26T06:51:42.032Z,129.6
2018-12-26T06:52:42.734Z,136.2
2018-12-26T06:53:43.461Z,128.9
2018-12-26T06:54:44.244Z,128.4
2018-12-26T06:55:44.954Z,132.9
2018-12-26T06:56:45.663Z,128.1
2018-12-26T06:57:46.619Z,135.0
2018-12-26T06:58:47.584Z,134.3
2018-12-26T06:59:48.286Z,137.9
2018-12-26T07:00:49.092Z,131.3
2018-12-26T07:01:49.814Z,138.0
2018-12-26T07:02:50.518Z,133.2
2018-12-26T07:03:51.225Z,132.5
2018-12-26T07:04:51.945Z,134.0
2018-12-26T07:05:52.648Z,133.6
2018-12-26T07:06:53.365Z,123.5
2018-12-26T07:07:54.076Z,130.8
2018-12-26T07:08:54.784Z,131.7
2018-12-26T07:09:55.485Z,142.0
2018-12-26T07:10:56.245Z,136.5
2018-12-26T07:11:56.971Z,121.6
2018-12-26T07:12:57.685Z,129.2
2018-12-26T07:13:58.401Z,123.5
2018-12-26T07:14:59.106Z,125.0
2018-12-26T07:15:59.826Z,121.7
2018-12-26T07:17:00.538Z,132.6
2018-12-26T07:18:01.252Z,136.5
2018-12-26T07:19:01.975Z,130.6
2018-12-26T07:20:02.685Z,132.2
2018-12-26T07:21:03.408Z,130.5
2018-12-26T07:22:04.123Z,132.8
2018-12-26T07:23:04.835Z,132.0
2018-12-26T07:24:05.541Z,135.1
2018-12-26T07:25:06.255Z,141.1
2018-12-26T07:26:06.969Z,129.0
2018-12-26T07:27:07.721Z,129.5
2018-12-26T07:28:09.196Z,135.0
2018-12-26T07:29:09.161Z,127.7
2018-12-26T07:30:09.895Z,135.6
2018-12-26T07:31:10.605Z,136.0
2018-12-26T07:32:11.374Z,139.5
2018-12-26T07:33:12.087Z,133.0
2018-12-26T07:34:12.810Z,132.3
2018-12-26T07:35:13.527Z,125.9
2018-12-26T07:36:14.239Z,128.0
2018-12-26T07:37:14.959Z,134.7
2018-12-26T07:38:15.676Z,127.3
2018-12-26T07:39:16.399Z,129.1
2018-12-26T07:40:17.383Z,124.3
2018-12-26T07:41:18.077Z,127.1
2018-12-26T07:42:18.791Z,127.3
2018-12-26T07:43:19.506Z,129.6
2018-12-26T07:44:20.215Z,125.4
2018-12-26T07:45:20.935Z,124.1
2018-12-26T07:46:21.652Z,128.8
2018-12-26T07:47:22.369Z,129.4
2018-12-26T07:48:23.081Z,124.7
2018-12-26T07:49:23.856Z,123.1
2018-12-26T07:50:24.565Z,131.6
2018-12-26T07:51:25.276Z,126.0
2018-12-26T07:52:25.990Z,129.8
2018-12-26T07:53:26.701Z,130.8
2018-12-26T07:54:27.417Z,123.3
2018-12-26T07:55:28.141Z,134.6
2018-12-26T07:56:28.870Z,136.3
2018-12-26T07:57:29.580Z,139.7
2018-12-26T07:58:30.300Z,134.2
2018-12-26T07:59:37.568Z,140.4
2018-12-26T08:00:31.973Z,134.8
2018-12-26T08:01:32.836Z,131.4
2018-12-26T08:02:33.501Z,131.2
2018-12-26T08:03:34.215Z,140.3
2018-12-26T08:04:34.931Z,128.5
2018-12-26T08:05:35.644Z,130.6
2018-12-26T08:06:36.473Z,134.7
2018-12-26T08:07:37.184Z,137.4
2018-12-26T08:08:37.904Z,145.5
2018-12-26T08:09:38.870Z,128.3
2018-12-26T08:10:39.578Z,136.9
2018-12-26T08:11:40.308Z,127.8
2018-12-26T08:12:41.009Z,136.1
2018-12-26T08:13:41.726Z,141.1
2018-12-26T08:14:42.447Z,137.5
2018-12-26T08:15:43.409Z,135.0
2018-12-26T08:16:44.130Z,132.5
2018-12-26T08:17:44.845Z,138.1
2018-12-26T08:18:45.558Z,137.9
2018-12-26T08:19:46.265Z,133.1
2018-12-26T08:20:46.992Z,145.3
2018-12-26T08:21:47.954Z,144.6
2018-12-26T08:22:48.664Z,136.3
2018-12-26T08:23:49.393Z,142.8
2018-12-26T08:24:50.096Z,144.6
2018-12-26T08:25:50.807Z,135.5
2018-12-26T08:26:53.593Z,142.4
2018-12-26T08:27:52.214Z,143.3
2018-12-26T08:28:52.945Z,143.2
2018-12-26T08:29:53.663Z,149.3
2018-12-26T08:30:54.386Z,137.1
2018-12-26T08:31:55.093Z,145.0
2018-12-26T08:32:55.814Z,150.2
2018-12-26T08:33:56.532Z,146.8
2018-12-26T08:34:57.256Z,153.0
2018-12-26T08:35:57.967Z,152.9
2018-12-26T08:36:58.693Z,148.5
2018-12-26T08:37:59.417Z,156.0
2018-12-26T08:39:00.119Z,147.1
2018-12-26T08:40:00.832Z,153.5
2018-12-26T08:41:01.553Z,154.7
2018-12-26T08:42:02.261Z,154.9
2018-12-26T08:43:02.976Z,154.8
2018-12-26T08:44:03.683Z,158.0
2018-12-26T08:45:04.510Z,160.0
2018-12-26T08:46:05.229Z,153.8
2018-12-26T08:47:05.947Z,163.7
2018-12-26T08:48:06.665Z,162.1
2018-12-26T08:49:07.376Z,168.8
2018-12-26T08:50:08.091Z,166.0
2018-12-26T08:51:08.809Z,169.7
2018-12-26T08:52:09.531Z,172.2
2018-12-26T08:53:10.259Z,167.8
2018-12-26T08:54:10.980Z,160.9
2018-12-26T08:55:11.696Z,170.3
2018-12-26T08:56:12.413Z,163.1
2018-12-26T08:57:13.132Z,172.1
2018-12-26T08:58:13.854Z,164.8
2018-12-26T08:59:14.563Z,168.1
2018-12-26T09:00:15.277Z,163.5
2018-12-26T09:01:16.087Z,175.7
2018-12-26T09:02:16.812Z,182.2
2018-12-26T09:03:17.542Z,157.0
2018-12-26T09:04:18.253Z,176.3
2018-12-26T09:05:18.969Z,173.5
2018-12-26T09:06:19.788Z,160.9
2018-12-26T09:07:20.503Z,169.9
2018-12-26T09:08:21.228Z,176.4
2018-12-26T09:09:21.958Z,177.4
2018-12-26T09:10:22.681Z,159.2
2018-12-26T09:11:23.437Z,158.1
2018-12-26T09:12:24.151Z,168.0
2018-12-26T09:13:24.875Z,159.9
2018-12-26T09:14:25.612Z,164.5
2018-12-26T09:15:26.305Z,171.9
2018-12-26T09:16:27.015Z,171.5
2018-12-26T09:17:27.898Z,177.7
2018-12-26T09:18:28.618Z,186.6
2018-12-26T09:19:29.328Z,167.5
2018-12-26T09:20:30.043Z,183.2
2018-12-26T09:21:30.770Z,175.7
2018-12-26T09:22:31.487Z,172.3
2018-12-26T09:23:32.342Z,179.4
2018-12-26T09:24:33.062Z,172.5
2018-12-26T09:25:33.774Z,169.4
2018-12-26T09:26:34.480Z,181.3
2018-12-26T09:27:35.201Z,183.7
2018-12-26T09:28:43.607Z,172.3
2018-12-26T09:29:36.643Z,170.8
2018-12-26T09:30:37.479Z,168.2
2018-12-26T09:31:38.096Z,187.2
2018-12-26T09:32:38.827Z,186.4
2018-12-26T09:33:39.532Z,173.4
2018-12-26T09:34:40.340Z,174.8
2018-12-26T09:35:41.049Z,176.4
2018-12-26T09:36:41.759Z,177.6
2018-12-26T09:37:42.475Z,187.1
2018-12-26T09:38:43.239Z,178.2
2018-12-26T09:39:43.950Z,187.7
2018-12-26T09:40:44.666Z,177.7
2018-12-26T09:41:45.395Z,168.4
2018-12-26T09:42:46.105Z,182.1
2018-12-26T09:43:46.843Z,177.9
2018-12-26T09:44:54.370Z,178.9
2018-12-26T09:45:48.270Z,178.8
2018-12-26T09:46:48.978Z,179.9
2018-12-26T09:47:49.698Z,166.7
2018-12-26T09:48:50.411Z,174.7
2018-12-26T09:49:51.140Z,183.3
2018-12-26T09:50:52.001Z,194.6
2018-12-26T09:51:52.716Z,183.9
2018-12-26T09:52:53.682Z,208.0
2018-12-26T09:53:54.433Z,215.1
2018-12-26T09:54:55.156Z,184.5
2018-12-26T09:55:55.865Z,202.5
2018-12-26T09:56:56.725Z,207.0
2018-12-26T09:57:57.448Z,177.8
2018-12-26T09:58:58.163Z,202.8
2018-12-26T09:59:58.881Z,182.5
2018-12-26T10:00:59.608Z,185.0
2018-12-26T10:02:00.453Z,191.7
2018-12-26T10:03:01.171Z,186.2
2018-12-26T10:04:01.886Z,213.1
2018-12-26T10:05:02.606Z,178.3
2018-12-26T10:06:03.326Z,192.0
2018-12-26T10:07:04.038Z,206.4
2018-12-26T10:08:04.752Z,220.5
2018-12-26T10:09:05.463Z,182.7
2018-12-26T10:10:06.175Z,200.5
2018-12-26T10:11:06.950Z,217.1
2018-12-26T10:12:07.607Z,205.8
2018-12-26T10:13:08.324Z,204.8
2018-12-26T10:14:09.028Z,196.8
2018-12-26T10:15:09.996Z,205.4
2018-12-26T10:16:10.719Z,199.4
2018-12-26T10:17:11.434Z,199.9
2018-12-26T10:18:12.156Z,203.8
2018-12-26T10:19:12.881Z,215.0
2018-12-26T10:20:13.597Z,201.6
2018-12-26T10:21:14.313Z,193.3
2018-12-26T10:22:15.041Z,206.6
2018-12-26T10:23:15.768Z,208.2
2018-12-26T10:24:16.533Z,212.4
2018-12-26T10:25:17.255Z,198.6
2018-12-26T10:26:17.979Z,200.6
2018-12-26T10:27:18.689Z,221.4
2018-12-26T10:28:19.414Z,188.7
2018-12-26T10:29:20.179Z,205.4
2018-12-26T10:30:20.891Z,207.5
2018-12-26T10:31:21.602Z,203.7
2018-12-26T10:32:22.315Z,208.4
2018-12-26T10:33:23.038Z,225.1
2018-12-26T10:34:23.909Z,231.6
2018-12-26T10:35:24.635Z,210.9
2018-12-26T10:36:25.373Z,210.0
2018-12-26T10:37:26.084Z,210.0
2018-12-26T10:38:26.803Z,211.0
2018-12-26T10:39:27.524Z,207.4
2018-12-26T10:40:28.239Z,233.1
2018-12-26T10:41:29.004Z,219.6
2018-12-26T10:42:29.719Z,203.2
2018-12-26T10:43:30.440Z,229.0
2018-12-26T10:44:31.159Z,224.5
2018-12-26T10:45:31.889Z,205.3
2018-12-26T10:46:32.608Z,215.9
2018-12-26T10:47:33.321Z,207.3
2018-12-26T10:48:34.058Z,216.4
2018-12-26T10:49:34.769Z,218.0
2018-12-26T10:50:35.489Z,223.9
2018-12-26T10:51:36.361Z,212.6
2018-12-26T10:52:37.073Z,207.4
2018-12-26T10:53:37.786Z,198.8
2018-12-26T10:54:38.511Z,208.2
2018-12-26T10:55:39.239Z,215.4
2018-12-26T10:56:39.971Z,233.3
2018-12-26T10:57:40.687Z,208.3
2018-12-26T10:58:41.401Z,217.8
2018-12-26T10:59:42.121Z,239.2
2018-12-26T11:00:42.843Z,241.6
2018-12-26T11:01:43.559Z,218.4
2018-12-26T11:02:44.272Z,210.5
2018-12-26T11:03:44.982Z,228.3
2018-12-26T11:04:45.731Z,218.5
2018-12-26T11:05:46.453Z,222.4
2018-12-26T11:06:47.188Z,206.1
2018-12-26T11:07:47.901Z,232.5
2018-12-26T11:08:48.621Z,219.6
2018-12-26T11:09:49.342Z,230.3
2018-12-26T11:10:50.050Z,226.1
2018-12-26T11:11:50.768Z,241.1
2018-12-26T11:12:51.487Z,224.7
2018-12-26T11:13:52.230Z,228.7
2018-12-26T11:14:52.946Z,211.5
2018-12-26T11:15:53.659Z,217.6
2018-12-26T11:16:54.430Z,219.7
2018-12-26T11:17:55.142Z,206.9
2018-12-26T11:18:55.885Z,207.4
2018-12-26T11:19:56.849Z,198.2
2018-12-26T11:20:57.576Z,202.8
2018-12-26T11:21:59.925Z,212.1
2018-12-26T11:22:59.009Z,220.6
2018-12-26T11:23:59.769Z,206.0
2018-12-26T11:25:00.491Z,222.6
2018-12-26T11:26:01.201Z,217.3
2018-12-26T11:27:01.925Z,204.1
2018-12-26T11:28:02.644Z,212.6
2018-12-26T11:29:03.507Z,203.1
2018-12-26T11:30:04.229Z,234.2
2018-12-26T11:31:04.957Z,215.0
2018-12-26T11:32:05.666Z,214.1
2018-12-26T11:33:06.402Z,208.0
2018-12-26T11:34:07.121Z,215.3
2018-12-26T11:35:07.845Z,211.9
2018-12-26T11:36:08.563Z,212.0
2018-12-26T11:37:09.271Z,234.0
2018-12-26T11:38:09.982Z,226.7
2018-12-26T11:39:10.962Z,207.0
2018-12-26T11:40:11.676Z,227.0
2018-12-26T11:41:12.545Z,226.6
2018-12-26T11:42:13.256Z,219.9
2018-12-26T11:43:13.993Z,207.3
2018-12-26T11:44:14.723Z,223.7
2018-12-26T11:45:15.442Z,209.9
2018-12-26T11:46:16.163Z,221.7
2018-12-26T11:47:16.879Z,202.6
2018-12-26T11:48:17.591Z,208.5
2018-12-26T11:49:18.307Z,200.1
2018-12-26T11:50:19.024Z,200.2
2018-12-26T11:51:19.738Z,213.4
2018-12-26T11:52:20.515Z,209.6
2018-12-26T11:53:21.232Z,219.5
2018-12-26T11:54:22.210Z,224.0
2018-12-26T11:55:22.922Z,206.6
2018-12-26T11:56:23.646Z,240.7
2018-12-26T11:57:24.354Z,250.8
2018-12-26T11:58:25.066Z,243.3
2018-12-26T11:59:27.316Z,216.8
2018-12-26T12:00:26.494Z,216.7
2018-12-26T12:01:27.215Z,224.5
2018-12-26T12:02:27.931Z,209.7
2018-12-26T12:03:28.652Z,213.9
2018-12-26T12:04:29.401Z,201.4
2018-12-26T12:05:30.138Z,201.0
2018-12-26T12:06:30.855Z,208.0
2018-12-26T12:07:31.571Z,207.2
2018-12-26T12:08:32.294Z,217.7
2018-12-26T12:09:34.376Z,213.5
2018-12-26T12:10:35.325Z,220.5
2018-12-26T12:11:36.045Z,219.4
2018-12-26T12:12:36.759Z,222.6
2018-12-26T12:13:37.734Z,206.8
2018-12-26T12:14:38.448Z,219.6
2018-12-26T12:15:39.184Z,233.9
2018-12-26T12:16:39.918Z,228.1
2018-12-26T12:17:40.637Z,236.9
2018-12-26T12:18:41.603Z,218.0
2018-12-26T12:19:42.349Z,203.8
2018-12-26T12:20:43.050Z,215.4
2018-12-26T12:21:43.767Z,240.4
2018-12-26T12:22:44.531Z,219.3
2018-12-26T12:23:45.249Z,251.9
2018-12-26T12:24:45.975Z,229.5
2018-12-26T12:25:46.695Z,242.6
2018-12-26T12:26:47.417Z,210.6
2018-12-26T12:27:48.661Z,225.9
2018-12-26T12:28:49.724Z,215.7
2018-12-26T12:29:50.447Z,216.3
2018-12-26T12:30:51.156Z,222.5
2018-12-26T12:31:51.875Z,234.6
2018-12-26T12:32:52.644Z,217.6
2018-12-26T12:33:53.358Z,227.9
2018-12-26T12:34:54.088Z,209.1
2018-12-26T12:35:54.808Z,193.6
2018-12-26T12:36:55.526Z,221.4
2018-12-26T12:37:56.498Z,203.0
2018-12-26T12:38:57.208Z,208.0
2018-12-26T12:39:57.932Z,221.1
2018-12-26T12:40:58.655Z,213.1
2018-12-26T12:41:59.381Z,238.5
2018-12-26T12:43:00.112Z,210.9
2018-12-26T12:44:00.816Z,215.8
2018-12-26T12:45:01.535Z,221.4
2018-12-26T12:46:02.253Z,211.1
2018-12-26T12:47:02.971Z,221.3
2018-12-26T12:48:03.679Z,210.9
2018-12-26T12:49:04.396Z,218.1
2018-12-26T12:50:05.116Z,220.3
2018-12-26T12:51:05.836Z,202.2
2018-12-26T12:52:06.550Z,212.7
2018-12-26T12:53:07.356Z,233.5
2018-12-26T12:54:08.325Z,214.6
2018-12-26T12:55:09.034Z,234.5
2018-12-26T12:56:12.209Z,202.0
2018-12-26T12:57:10.476Z,192.3
2018-12-26T12:58:11.193Z,232.2
2018-12-26T12:59:11.996Z,204.3
2018-12-26T13:00:12.645Z,198.5
2018-12-26T13:01:13.346Z,237.8
2018-12-26T13:02:14.093Z,219.4
2018-12-26T13:03:14.806Z,223.1
2018-12-26T13:04:15.532Z,212.8
2018-12-26T13:05:16.239Z,213.7
2018-12-26T13:06:17.217Z,200.9
2018-12-26T13:07:17.926Z,202.9
2018-12-26T13:08:18.695Z,211.6
2018-12-26T13:09:19.415Z,218.6
2018-12-26T13:10:20.136Z,198.1
2018-12-26T13:11:20.855Z,187.1
2018-12-26T13:12:21.573Z,208.8
2018-12-26T13:13:22.296Z,213.9
2018-12-26T13:14:23.024Z,193.5
2018-12-26T13:15:23.789Z,197.8